Time;durP1;ratioP1;P1;durP2;ratioP2;P2;SDS_P1;SDS_P2;PMS_P1;PMS_P2;Temp;Humidity;BMP_temperature;BMP_pressure;BME280_temperature;BME280_humidity;BME280_pressure;Samples;Min_cycle;Max_cycle;Signal;HPM_P1;HPM_P2
2023/04/12 00:00:12;;;;;;;7.18;3.08;;;7.80;99.90;;;;;;5044901;28;20406;-76
2023/04/12 00:02:38;;;;;;;10.10;3.80;;;7.90;99.90;;;;;;5047091;28;20749;-77
2023/04/12 00:05:04;;;;;;;10.95;2.85;;;7.90;99.90;;;;;;5046938;28;20409;-75
2023/04/12 00:07:30;;;;;;;11.50;3.23;;;7.90;99.90;;;;;;5046788;28;20560;-77
2023/04/12 00:09:56;;;;;;;13.30;3.40;;;8.10;99.90;;;;;;5044613;28;20508;-77
2023/04/12 00:12:21;;;;;;;10.70;2.07;;;8.00;99.90;;;;;;5046608;28;20405;-76
2023/04/12 00:14:47;;;;;;;15.10;4.07;;;8.10;99.90;;;;;;5045258;28;20529;-76
2023/04/12 00:17:13;;;;;;;9.10;2.70;;;8.20;99.90;;;;;;5046973;28;20413;-77
2023/04/12 00:19:41;;;;;;;10.70;2.93;;;8.10;99.90;;;;;;5046420;28;20405;-77
2023/04/12 00:22:11;;;;;;;15.18;3.90;;;8.20;99.90;;;;;;5046903;28;20401;-75
2023/04/12 00:24:40;;;;;;;8.88;2.53;;;8.20;99.90;;;;;;5028809;28;20449;-77
2023/04/12 00:27:06;;;;;;;9.88;2.92;;;8.20;99.90;;;;;;5045217;28;20422;-79
2023/04/12 00:29:33;;;;;;;10.80;3.08;;;8.30;99.90;;;;;;5045954;28;20417;-76
2023/04/12 00:32:00;;;;;;;9.87;3.00;;;8.30;99.90;;;;;;5046143;28;20405;-77
2023/04/12 00:34:29;;;;;;;9.30;2.75;;;8.30;99.90;;;;;;5046378;28;20444;-76
2023/04/12 00:36:55;;;;;;;10.73;3.05;;;8.30;99.90;;;;;;5046021;28;20508;-76
2023/04/12 00:39:21;;;;;;;10.97;3.80;;;8.30;99.90;;;;;;5046288;28;20906;-76
2023/04/12 00:41:47;;;;;;;9.75;2.63;;;8.30;99.90;;;;;;5044995;28;20411;-77
2023/04/12 00:44:12;;;;;;;9.90;2.85;;;8.30;99.90;;;;;;5044910;28;20647;-76
2023/04/12 00:46:38;;;;;;;11.40;3.60;;;8.30;99.90;;;;;;5044936;28;20667;-76
2023/04/12 00:49:05;;;;;;;12.25;3.13;;;8.30;99.90;;;;;;5045857;28;20455;-77
2023/04/12 00:51:32;;;;;;;9.65;2.40;;;8.40;99.90;;;;;;5045104;28;20445;-77
2023/04/12 00:53:58;;;;;;;8.55;2.28;;;8.30;99.90;;;;;;5046183;28;20410;-77
2023/04/12 00:56:26;;;;;;;13.77;3.53;;;8.40;99.90;;;;;;5045912;28;20559;-77
2023/04/12 00:58:55;;;;;;;11.23;3.28;;;8.30;99.90;;;;;;5045705;28;20413;-76
2023/04/12 01:01:21;;;;;;;8.70;2.53;;;8.30;99.90;;;;;;5044958;28;20402;-77
2023/04/12 01:03:51;;;;;;;11.57;4.03;;;8.30;99.90;;;;;;5043924;28;20904;-76
2023/04/12 01:06:41;;;;;;;11.05;3.88;;;8.20;99.90;;;;;;5045872;28;20425;-76
2023/04/12 01:09:29;;;;;;;11.57;3.17;;;8.30;99.90;;;;;;5045520;28;20772;-78
2023/04/12 01:12:10;;;;;;;9.63;3.10;;;8.20;99.90;;;;;;5045068;28;20485;-77
2023/04/12 01:15:01;;;;;;;10.50;2.90;;;8.20;99.90;;;;;;5043225;28;20406;-77
2023/04/12 01:17:30;;;;;;;10.52;2.58;;;8.20;99.90;;;;;;5045878;28;20493;-77
2023/04/12 01:20:08;;;;;;;7.93;2.50;;;8.20;99.90;;;;;;5044626;28;20441;-76
2023/04/12 01:22:46;;;;;;;9.88;3.10;;;8.10;99.90;;;;;;5045809;28;20424;-75
2023/04/12 01:25:39;;;;;;;9.55;2.55;;;8.20;99.90;;;;;;5045355;28;20607;-78
2023/04/12 01:28:10;;;;;;;8.80;3.88;;;8.10;99.90;;;;;;5044334;28;20711;-77
2023/04/12 01:30:38;;;;;;;11.07;3.83;;;8.10;99.90;;;;;;5044497;28;20488;-77
2023/04/12 01:33:08;;;;;;;8.98;2.60;;;8.20;99.90;;;;;;5045474;28;20811;-76
2023/04/12 01:35:34;;;;;;;9.90;2.97;;;8.10;99.90;;;;;;5045171;28;20432;-76
2023/04/12 01:38:00;;;;;;;11.23;3.47;;;8.10;99.90;;;;;;5044606;28;20495;-77
2023/04/12 01:40:28;;;;;;;9.13;2.92;;;8.20;99.90;;;;;;5045357;28;20479;-77
2023/04/12 01:43:07;;;;;;;8.20;2.58;;;8.10;99.90;;;;;;5045793;28;20947;-77
2023/04/12 01:45:33;;;;;;;9.00;2.53;;;8.20;99.90;;;;;;5044221;28;20479;-78
2023/04/12 01:48:00;;;;;;;11.35;3.70;;;8.20;99.90;;;;;;5044940;28;21078;-76
2023/04/12 01:50:31;;;;;;;12.15;3.88;;;8.20;99.90;;;;;;5044943;28;20400;-77
2023/04/12 01:53:25;;;;;;;7.72;3.00;;;8.10;99.90;;;;;;5044554;28;20433;-77
2023/04/12 01:55:57;;;;;;;8.75;2.50;;;8.20;99.90;;;;;;5044495;28;20897;-77
2023/04/12 01:58:24;;;;;;;9.57;2.25;;;8.20;99.90;;;;;;5044706;28;20385;-76
2023/04/12 02:00:51;;;;;;;8.23;2.10;;;8.10;99.90;;;;;;5042753;28;21115;-77
2023/04/12 02:03:20;;;;;;;8.65;2.95;;;8.20;99.90;;;;;;5044830;28;20439;-75
2023/04/12 02:05:46;;;;;;;13.10;3.10;;;8.20;99.90;;;;;;5043905;28;20420;-76
2023/04/12 02:08:12;;;;;;;10.40;2.67;;;8.10;99.90;;;;;;5043136;28;20493;-76
2023/04/12 02:10:39;;;;;;;8.05;2.33;;;8.20;99.90;;;;;;5044124;28;20427;-76
2023/04/12 02:13:05;;;;;;;15.40;3.05;;;8.20;99.90;;;;;;5044544;28;20413;-76
2023/04/12 02:15:31;;;;;;;8.45;2.65;;;8.20;99.90;;;;;;5043971;28;20414;-77
2023/04/12 02:17:58;;;;;;;7.33;3.27;;;8.20;99.90;;;;;;5044557;28;20451;-76
2023/04/12 02:20:25;;;;;;;11.25;2.90;;;8.20;99.90;;;;;;5045156;28;20887;-76
2023/04/12 02:22:50;;;;;;;10.40;2.72;;;8.20;99.90;;;;;;5044683;28;20520;-76
2023/04/12 02:25:16;;;;;;;9.88;2.75;;;8.20;99.90;;;;;;5044468;28;20512;-77
2023/04/12 02:27:43;;;;;;;8.18;2.30;;;8.20;99.90;;;;;;5044699;28;20420;-78
2023/04/12 02:30:10;;;;;;;7.38;1.95;;;8.20;99.90;;;;;;5043507;28;20402;-76
2023/04/12 02:32:43;;;;;;;9.75;3.05;;;8.10;99.90;;;;;;5042788;28;20417;-77
2023/04/12 02:35:18;;;;;;;7.32;2.40;;;8.20;99.90;;;;;;5043351;28;20455;-76
2023/04/12 02:37:48;;;;;;;8.35;2.28;;;8.20;99.90;;;;;;5043936;28;20417;-78
2023/04/12 02:40:14;;;;;;;11.20;3.05;;;8.20;99.90;;;;;;5044419;28;20807;-78
2023/04/12 02:42:41;;;;;;;10.02;2.63;;;8.20;99.90;;;;;;5044023;28;20447;-77
2023/04/12 02:45:08;;;;;;;10.90;3.60;;;8.20;99.90;;;;;;5043537;28;20776;-77
2023/04/12 02:47:34;;;;;;;8.45;2.22;;;8.20;99.90;;;;;;5044122;28;20772;-77
2023/04/12 02:50:00;;;;;;;10.40;3.13;;;8.20;99.90;;;;;;5044372;28;20410;-76
2023/04/12 02:52:27;;;;;;;7.25;2.80;;;8.20;99.90;;;;;;5043895;28;20819;-77
2023/04/12 02:54:53;;;;;;;10.60;2.92;;;8.20;99.90;;;;;;5043792;28;20455;-77
2023/04/12 02:57:20;;;;;;;6.85;1.92;;;8.10;99.90;;;;;;5042764;28;20426;-79
2023/04/12 02:59:47;;;;;;;8.32;2.70;;;8.10;99.90;;;;;;5042923;28;20843;-77
2023/04/12 03:02:13;;;;;;;6.25;2.17;;;8.20;99.90;;;;;;5044276;28;20420;-76
2023/04/12 03:04:39;;;;;;;6.55;2.47;;;8.20;99.90;;;;;;5043840;28;20401;-76
2023/04/12 03:07:05;;;;;;;11.17;3.30;;;8.20;99.90;;;;;;5044322;28;20433;-76
2023/04/12 03:09:31;;;;;;;12.27;2.63;;;8.20;99.90;;;;;;5044342;28;20892;-75
2023/04/12 03:11:57;;;;;;;7.85;2.05;;;8.10;99.90;;;;;;5046758;28;21032;-77
2023/04/12 03:14:23;;;;;;;8.10;2.45;;;8.10;99.90;;;;;;5047427;28;20445;-76
2023/04/12 03:16:50;;;;;;;7.82;3.00;;;8.20;99.90;;;;;;5047331;28;20417;-76
2023/04/12 03:19:16;;;;;;;6.75;1.95;;;8.10;99.90;;;;;;5047906;28;20484;-75
2023/04/12 03:21:42;;;;;;;6.82;2.10;;;8.20;99.90;;;;;;5046392;28;20421;-76
2023/04/12 03:24:07;;;;;;;12.57;3.00;;;8.20;99.90;;;;;;5047782;28;20807;-76
2023/04/12 03:26:34;;;;;;;7.27;1.93;;;8.20;99.90;;;;;;5047425;28;20427;-76
2023/04/12 03:29:03;;;;;;;7.35;2.13;;;8.10;99.90;;;;;;5045380;28;20413;-78
2023/04/12 03:31:30;;;;;;;7.07;2.28;;;8.10;99.90;;;;;;5047924;28;20397;-76
2023/04/12 03:33:56;;;;;;;8.17;2.90;;;8.20;99.90;;;;;;5047918;28;20413;-78
2023/04/12 03:36:22;;;;;;;8.20;2.22;;;8.20;99.90;;;;;;5047364;28;20819;-77
2023/04/12 03:38:48;;;;;;;10.23;3.05;;;8.20;99.90;;;;;;5047581;28;20462;-77
2023/04/12 03:41:14;;;;;;;5.00;1.90;;;8.10;99.90;;;;;;5047683;28;20413;-75
2023/04/12 03:43:41;;;;;;;4.95;1.80;;;8.10;99.90;;;;;;5046839;28;20467;-75
2023/04/12 03:46:07;;;;;;;7.25;2.25;;;8.10;99.90;;;;;;5046384;28;20429;-77
2023/04/12 03:48:33;;;;;;;8.98;2.10;;;8.20;99.90;;;;;;5029177;28;20513;-76
2023/04/12 03:50:59;;;;;;;4.70;1.95;;;8.10;99.90;;;;;;5029024;28;20750;-75
2023/04/12 03:53:30;;;;;;;5.18;1.80;;;8.10;99.90;;;;;;5046883;28;20530;-76
2023/04/12 03:55:55;;;;;;;6.95;1.48;;;8.00;99.90;;;;;;5046338;28;20401;-77
2023/04/12 03:58:22;;;;;;;7.88;2.38;;;8.10;99.90;;;;;;5046333;28;20558;-76
2023/04/12 04:00:47;;;;;;;9.20;2.42;;;8.10;99.90;;;;;;5045597;28;20427;-77
2023/04/12 04:03:14;;;;;;;4.00;1.70;;;8.10;99.90;;;;;;5046999;28;20972;-77
2023/04/12 04:05:40;;;;;;;5.40;1.77;;;8.00;99.90;;;;;;5045118;28;20942;-77
2023/04/12 04:08:07;;;;;;;6.80;2.17;;;8.00;99.90;;;;;;5046543;28;20410;-77
2023/04/12 04:10:33;;;;;;;5.00;1.65;;;8.00;99.90;;;;;;5046228;28;20454;-76
2023/04/12 04:12:59;;;;;;;8.25;1.95;;;8.10;99.90;;;;;;5044715;28;20409;-76
2023/04/12 04:15:25;;;;;;;6.32;2.05;;;8.10;99.90;;;;;;5043951;28;20750;-77
2023/04/12 04:17:51;;;;;;;7.47;2.30;;;8.00;99.90;;;;;;5046197;28;20405;-76
2023/04/12 04:20:17;;;;;;;8.07;2.38;;;8.00;99.90;;;;;;5044830;28;20416;-76
2023/04/12 04:22:47;;;;;;;5.77;1.93;;;8.10;99.90;;;;;;5045462;28;20425;-77
2023/04/12 04:25:14;;;;;;;6.10;1.90;;;8.00;99.90;;;;;;5046154;28;20417;-75
2023/04/12 04:27:43;;;;;;;7.13;2.83;;;8.00;99.90;;;;;;5045983;28;20429;-77
2023/04/12 04:30:10;;;;;;;4.78;1.67;;;8.10;99.90;;;;;;5045264;28;20412;-77
2023/04/12 04:32:39;;;;;;;6.20;1.70;;;8.00;99.90;;;;;;5045437;28;20765;-78
2023/04/12 04:35:05;;;;;;;7.90;1.90;;;8.00;99.90;;;;;;5044877;28;20566;-75
2023/04/12 04:37:34;;;;;;;8.70;2.72;;;7.90;99.90;;;;;;5045727;28;20413;-76
2023/04/12 04:40:06;;;;;;;8.98;2.60;;;8.00;99.90;;;;;;5044211;28;20413;-76
2023/04/12 04:42:32;;;;;;;5.45;2.25;;;7.90;99.90;;;;;;5044401;28;20973;-76
2023/04/12 04:45:01;;;;;;;7.77;2.90;;;7.90;99.90;;;;;;5044320;28;20405;-76
2023/04/12 04:47:29;;;;;;;8.13;2.80;;;7.90;99.90;;;;;;5045501;28;20416;-76
2023/04/12 04:49:56;;;;;;;6.97;2.40;;;7.80;99.90;;;;;;5045004;28;20819;-76
2023/04/12 04:52:22;;;;;;;6.03;2.50;;;7.90;99.90;;;;;;5045514;28;20476;-76
2023/04/12 04:54:48;;;;;;;9.45;2.90;;;7.80;99.90;;;;;;5047405;28;20527;-75
2023/04/12 04:57:14;;;;;;;6.88;3.08;;;7.80;99.90;;;;;;5045766;28;20437;-75
2023/04/12 04:59:40;;;;;;;10.80;2.90;;;7.80;99.90;;;;;;5042812;28;20578;-75
2023/04/12 05:02:06;;;;;;;9.17;3.70;;;7.80;99.90;;;;;;5045376;28;20437;-76
2023/04/12 05:04:31;;;;;;;7.57;3.60;;;7.80;99.90;;;;;;5045475;28;20397;-75
2023/04/12 05:06:57;;;;;;;7.37;3.63;;;7.80;99.90;;;;;;5044672;28;20436;-75
2023/04/12 05:09:23;;;;;;;11.03;4.43;;;7.80;99.90;;;;;;5044934;28;20413;-75
2023/04/12 05:11:48;;;;;;;12.07;4.57;;;7.70;99.90;;;;;;5045063;28;20417;-75
2023/04/12 05:14:14;;;;;;;10.83;5.43;;;7.70;99.90;;;;;;5044238;28;20496;-75
2023/04/12 05:16:40;;;;;;;11.90;5.70;;;7.70;99.90;;;;;;5044599;28;20470;-75
2023/04/12 05:19:06;;;;;;;10.87;5.83;;;7.70;99.90;;;;;;5045434;28;20977;-75
2023/04/12 05:21:32;;;;;;;10.52;6.55;;;7.70;99.90;;;;;;5046137;28;20417;-74
2023/04/12 05:23:58;;;;;;;10.95;7.05;;;7.80;99.90;;;;;;5046363;28;20436;-74
2023/04/12 05:26:24;;;;;;;11.43;7.30;;;7.80;99.90;;;;;;5045957;28;20457;-75
2023/04/12 05:28:50;;;;;;;12.98;7.20;;;7.70;99.90;;;;;;5045351;28;20827;-73
2023/04/12 05:31:16;;;;;;;12.27;7.30;;;7.80;99.90;;;;;;5047811;28;20445;-75
2023/04/12 05:33:43;;;;;;;10.80;8.15;;;7.80;99.90;;;;;;5044637;28;20406;-75
2023/04/12 05:36:10;;;;;;;12.45;8.90;;;7.70;99.90;;;;;;5044518;28;20459;-77
2023/04/12 05:38:36;;;;;;;11.60;7.15;;;7.70;99.90;;;;;;5045226;28;20439;-77
2023/04/12 05:41:04;;;;;;;12.85;7.18;;;7.80;99.90;;;;;;5044843;28;20496;-74
2023/04/12 05:43:31;;;;;;;13.80;7.95;;;7.80;99.90;;;;;;5043639;28;20406;-75
2023/04/12 05:45:58;;;;;;;11.02;7.07;;;7.70;99.90;;;;;;5044092;28;20648;-75
2023/04/12 05:48:24;;;;;;;12.70;7.72;;;7.80;99.90;;;;;;5043190;28;20500;-75
2023/04/12 05:50:53;;;;;;;12.45;7.22;;;7.90;99.90;;;;;;5044508;28;20713;-75
2023/04/12 05:53:20;;;;;;;10.70;6.13;;;7.80;99.90;;;;;;5043461;28;20409;-75
2023/04/12 05:55:46;;;;;;;12.10;6.50;;;7.80;99.90;;;;;;5044445;28;20729;-75
2023/04/12 05:58:12;;;;;;;11.85;6.07;;;7.70;99.90;;;;;;5044664;28;20401;-75
2023/04/12 06:00:41;;;;;;;10.50;6.15;;;7.80;99.90;;;;;;5043272;28;20505;-75
2023/04/12 06:03:09;;;;;;;9.63;6.47;;;7.80;99.90;;;;;;5044395;28;20965;-75
2023/04/12 06:05:35;;;;;;;12.15;6.22;;;7.80;99.90;;;;;;5044576;28;20425;-75
2023/04/12 06:08:00;;;;;;;8.13;5.53;;;7.80;99.90;;;;;;5044854;28;20409;-74
2023/04/12 06:10:26;;;;;;;12.15;6.35;;;7.80;99.90;;;;;;5044315;28;20448;-75
2023/04/12 06:12:52;;;;;;;8.30;5.07;;;7.90;99.90;;;;;;5026043;28;20417;-75
2023/04/12 06:15:19;;;;;;;8.68;4.97;;;7.80;99.90;;;;;;5042982;28;20414;-75
2023/04/12 06:17:45;;;;;;;10.20;5.18;;;7.80;99.90;;;;;;5042301;28;20943;-75
2023/04/12 06:20:11;;;;;;;9.80;5.00;;;7.70;99.90;;;;;;5044438;28;20401;-75
2023/04/12 06:22:37;;;;;;;8.68;4.90;;;7.80;99.90;;;;;;5043734;28;20449;-76
2023/04/12 06:25:03;;;;;;;7.82;4.88;;;7.80;99.90;;;;;;5044586;28;20451;-76
2023/04/12 06:27:29;;;;;;;10.07;4.82;;;7.70;99.90;;;;;;5043682;28;20455;-76
2023/04/12 06:29:55;;;;;;;8.75;4.03;;;7.90;99.90;;;;;;5043007;28;20409;-76
2023/04/12 06:32:21;;;;;;;6.72;4.22;;;7.80;99.90;;;;;;5042564;28;20421;-75
2023/04/12 06:34:47;;;;;;;5.90;4.28;;;7.70;99.90;;;;;;5043996;28;20441;-75
2023/04/12 06:37:13;;;;;;;10.47;5.53;;;7.80;99.90;;;;;;5044287;28;20512;-75
2023/04/12 06:39:38;;;;;;;7.77;4.63;;;7.80;99.90;;;;;;5043903;28;20402;-76
2023/04/12 06:42:04;;;;;;;8.70;4.53;;;7.90;99.90;;;;;;5044220;28;20421;-74
2023/04/12 06:44:32;;;;;;;7.83;5.40;;;7.80;99.90;;;;;;5043105;28;20489;-75
2023/04/12 06:46:58;;;;;;;10.35;4.85;;;7.90;99.90;;;;;;5046114;28;20436;-75
2023/04/12 06:49:24;;;;;;;7.63;4.18;;;7.80;99.90;;;;;;5046218;28;20401;-75
2023/04/12 06:51:50;;;;;;;9.95;5.88;;;7.90;99.90;;;;;;5047589;28;20442;-76
2023/04/12 06:54:16;;;;;;;7.28;4.47;;;7.90;99.90;;;;;;5048342;28;20404;-75
2023/04/12 06:56:41;;;;;;;7.27;4.57;;;7.90;99.90;;;;;;5047434;28;20409;-76
2023/04/12 06:59:08;;;;;;;7.43;4.87;;;7.80;99.90;;;;;;5045306;28;20767;-76
2023/04/12 07:01:33;;;;;;;8.40;5.00;;;8.00;99.90;;;;;;5047750;28;20405;-75
2023/04/12 07:03:59;;;;;;;7.55;4.68;;;7.90;99.90;;;;;;5047385;28;20856;-76
2023/04/12 07:06:26;;;;;;;7.32;5.20;;;7.80;99.90;;;;;;5046114;28;20437;-75
2023/04/12 07:08:52;;;;;;;8.70;5.40;;;7.90;99.90;;;;;;5047573;28;20554;-76
2023/04/12 07:11:18;;;;;;;7.40;5.40;;;7.90;99.90;;;;;;5047737;28;20493;-76
2023/04/12 07:13:43;;;;;;;9.52;6.18;;;7.90;99.90;;;;;;5046593;28;20416;-75
2023/04/12 07:16:09;;;;;;;6.63;5.30;;;8.00;99.90;;;;;;5047228;28;20413;-76
2023/04/12 07:18:35;;;;;;;8.07;6.07;;;7.90;99.90;;;;;;5048081;28;20390;-75
2023/04/12 07:21:00;;;;;;;8.27;6.13;;;8.00;99.90;;;;;;5047585;28;20759;-75
2023/04/12 07:23:26;;;;;;;7.27;5.80;;;8.10;99.90;;;;;;5047478;28;20864;-75
2023/04/12 07:25:52;;;;;;;8.80;5.68;;;8.00;99.90;;;;;;5046752;28;20447;-75
2023/04/12 07:28:18;;;;;;;6.82;5.93;;;8.10;99.90;;;;;;5045959;28;20413;-75
2023/04/12 07:30:44;;;;;;;7.72;5.30;;;8.10;99.90;;;;;;5046649;28;20703;-76
2023/04/12 07:33:10;;;;;;;9.27;6.18;;;8.10;99.90;;;;;;5047035;28;20432;-75
2023/04/12 07:35:36;;;;;;;7.00;5.10;;;8.10;99.90;;;;;;5046954;28;20673;-77
2023/04/12 07:38:01;;;;;;;7.00;5.63;;;8.00;99.90;;;;;;5045615;28;20792;-76
2023/04/12 07:40:27;;;;;;;7.55;5.80;;;8.10;99.90;;;;;;5046871;28;20464;-76
2023/04/12 07:42:53;;;;;;;6.18;5.60;;;8.10;99.90;;;;;;5046331;28;20409;-76
2023/04/12 07:45:19;;;;;;;6.45;5.07;;;8.10;99.90;;;;;;5045676;28;20880;-76
2023/04/12 07:47:45;;;;;;;8.00;5.70;;;8.10;99.90;;;;;;5046696;28;20815;-75
2023/04/12 07:50:10;;;;;;;9.87;7.47;;;8.30;99.90;;;;;;5046953;28;20409;-76
2023/04/12 07:52:36;;;;;;;6.37;4.90;;;8.30;99.90;;;;;;5046713;28;20769;-77
2023/04/12 07:55:02;;;;;;;5.23;4.73;;;8.20;99.90;;;;;;5047610;28;20413;-76
2023/04/12 07:57:27;;;;;;;5.77;5.07;;;8.20;99.90;;;;;;5045026;28;20449;-74
2023/04/12 07:59:53;;;;;;;6.40;5.00;;;8.20;99.90;;;;;;5045489;28;20405;-76
2023/04/12 08:02:25;;;;;;;5.88;5.28;;;8.30;99.90;;;;;;5045323;28;20421;-76
2023/04/12 08:04:54;;;;;;;5.82;5.20;;;8.50;99.90;;;;;;5045316;28;20421;-75
2023/04/12 08:07:23;;;;;;;6.45;5.35;;;8.40;99.90;;;;;;5046531;28;20433;-75
2023/04/12 08:09:49;;;;;;;6.10;5.57;;;8.50;99.90;;;;;;5046336;28;20475;-76
2023/04/12 08:12:15;;;;;;;7.67;6.40;;;8.50;99.90;;;;;;5046496;28;20482;-76
2023/04/12 08:14:41;;;;;;;6.53;5.10;;;8.60;99.90;;;;;;5045123;28;20767;-75
2023/04/12 08:17:07;;;;;;;6.47;5.00;;;8.50;99.90;;;;;;5046252;28;20393;-76
2023/04/12 08:19:34;;;;;;;7.50;5.47;;;8.60;99.90;;;;;;5046542;28;20761;-76
2023/04/12 08:22:00;;;;;;;7.47;6.10;;;8.40;99.90;;;;;;5045887;28;20582;-76
2023/04/12 08:24:26;;;;;;;6.00;5.43;;;8.60;99.90;;;;;;5046849;28;20401;-75
2023/04/12 08:26:52;;;;;;;8.35;7.20;;;8.60;99.90;;;;;;5046660;28;20436;-76
2023/04/12 08:29:17;;;;;;;7.78;5.90;;;8.60;99.90;;;;;;5045220;28;20412;-75
2023/04/12 08:31:44;;;;;;;8.57;5.90;;;8.40;99.90;;;;;;5046534;28;20441;-74
2023/04/12 08:34:09;;;;;;;9.00;5.78;;;8.50;99.90;;;;;;5046999;28;20401;-74
2023/04/12 08:36:35;;;;;;;7.95;5.93;;;8.50;99.90;;;;;;5046651;28;20463;-77
2023/04/12 08:39:01;;;;;;;8.40;6.47;;;8.60;99.90;;;;;;5046447;28;20402;-75
2023/04/12 08:41:27;;;;;;;5.72;5.15;;;8.60;99.90;;;;;;5046389;28;20409;-76
2023/04/12 08:43:56;;;;;;;5.55;5.00;;;8.60;99.90;;;;;;5045031;28;20409;-78
2023/04/12 08:46:22;;;;;;;8.15;5.50;;;8.70;99.90;;;;;;5045973;28;20463;-75
2023/04/12 08:48:52;;;;;;;7.43;5.50;;;8.80;99.90;;;;;;5045328;28;20841;-75
2023/04/12 08:51:20;;;;;;;7.17;5.20;;;8.90;99.90;;;;;;5045387;28;21138;-74
2023/04/12 08:53:46;;;;;;;5.05;4.55;;;9.00;99.90;;;;;;5044213;28;20783;-75
2023/04/12 08:56:13;;;;;;;5.07;3.70;;;9.00;99.90;;;;;;5045301;28;20891;-75
2023/04/12 08:58:40;;;;;;;6.25;4.60;;;9.10;99.90;;;;;;5044434;28;20397;-75
2023/04/12 09:01:14;;;;;;;7.03;4.80;;;9.30;99.90;;;;;;5044254;28;20406;-76
2023/04/12 09:03:42;;;;;;;6.50;4.43;;;9.50;99.90;;;;;;5045512;28;20834;-76
2023/04/12 09:06:08;;;;;;;4.95;3.70;;;9.70;99.90;;;;;;5043964;28;20466;-76
2023/04/12 09:08:34;;;;;;;3.70;2.72;;;9.70;99.90;;;;;;5044075;28;20405;-75
2023/04/12 09:11:00;;;;;;;3.88;2.90;;;9.60;99.90;;;;;;5045354;28;20855;-75
2023/04/12 09:13:38;;;;;;;3.72;3.15;;;9.90;99.90;;;;;;5044548;28;20417;-75
2023/04/12 09:16:04;;;;;;;5.93;3.85;;;10.00;99.90;;;;;;5045373;28;20729;-74
2023/04/12 09:18:29;;;;;;;5.53;3.63;;;10.10;99.90;;;;;;5027786;28;20649;-75
2023/04/12 09:21:07;;;;;;;6.47;4.10;;;10.30;99.90;;;;;;5044831;28;20912;-75
2023/04/12 09:23:35;;;;;;;5.60;3.95;;;10.30;99.90;;;;;;5045430;28;20419;-75
2023/04/12 09:26:01;;;;;;;7.03;3.40;;;10.50;99.90;;;;;;5044930;28;20415;-75
2023/04/12 09:28:28;;;;;;;8.40;3.38;;;10.60;99.90;;;;;;5044133;28;21022;-75
2023/04/12 09:30:58;;;;;;;6.90;3.83;;;10.70;99.90;;;;;;5044621;28;20393;-76
2023/04/12 09:33:35;;;;;;;7.13;3.30;;;10.90;99.90;;;;;;5045166;28;20507;-75
2023/04/12 09:36:03;;;;;;;9.38;3.50;;;11.00;99.90;;;;;;5043498;28;20422;-75
2023/04/12 09:38:30;;;;;;;8.57;3.95;;;10.90;99.90;;;;;;5044886;28;20448;-75
2023/04/12 09:40:56;;;;;;;6.47;3.83;;;10.90;99.90;;;;;;5044506;28;20405;-75
2023/04/12 09:43:38;;;;;;;8.98;3.67;;;11.30;99.90;;;;;;5044060;28;20402;-75
2023/04/12 09:46:12;;;;;;;8.10;3.58;;;11.30;99.90;;;;;;5043721;28;20429;-75
2023/04/12 09:48:47;;;;;;;7.00;2.88;;;11.20;99.90;;;;;;5044728;28;20401;-76
2023/04/12 09:51:35;;;;;;;9.10;3.60;;;11.00;99.90;;;;;;5044111;28;20625;-76
2023/04/12 09:54:03;;;;;;;6.80;2.80;;;10.90;99.90;;;;;;5044841;28;20900;-76
2023/04/12 09:56:30;;;;;;;5.70;3.23;;;10.90;99.90;;;;;;5044128;28;20414;-76
2023/04/12 09:59:03;;;;;;;9.27;3.58;;;11.00;99.90;;;;;;5043577;28;20413;-76
2023/04/12 10:01:35;;;;;;;9.52;3.63;;;10.90;99.90;;;;;;5042901;28;20425;-76
2023/04/12 10:04:01;;;;;;;11.82;3.47;;;10.80;99.90;;;;;;5044730;28;20734;-76
2023/04/12 10:06:27;;;;;;;9.30;3.50;;;10.60;99.90;;;;;;5044453;28;20508;-76
2023/04/12 10:08:54;;;;;;;9.20;2.60;;;10.90;99.90;;;;;;5043989;28;20474;-76
2023/04/12 10:11:21;;;;;;;10.20;3.73;;;11.00;99.90;;;;;;5044361;28;20436;-76
2023/04/12 10:13:48;;;;;;;10.43;3.58;;;11.20;99.90;;;;;;5043160;28;20783;-75
2023/04/12 10:16:15;;;;;;;10.33;3.10;;;11.20;99.90;;;;;;5044659;28;20420;-75
2023/04/12 10:18:42;;;;;;;11.45;3.88;;;11.20;99.90;;;;;;5044242;28;20397;-76
2023/04/12 10:21:08;;;;;;;11.30;2.85;;;11.20;99.90;;;;;;5043814;28;20420;-77
2023/04/12 10:23:34;;;;;;;13.18;3.60;;;11.20;99.90;;;;;;5043132;28;20418;-76
2023/04/12 10:26:03;;;;;;;13.03;3.60;;;11.30;99.90;;;;;;5044445;28;20471;-76
2023/04/12 10:28:29;;;;;;;18.98;3.78;;;11.10;99.90;;;;;;5043484;28;20405;-75
2023/04/12 10:30:57;;;;;;;10.55;2.50;;;11.20;99.90;;;;;;5044007;28;20408;-75
2023/04/12 10:33:29;;;;;;;13.70;3.20;;;11.20;99.90;;;;;;5043348;28;20422;-76
2023/04/12 10:36:05;;;;;;;13.65;3.75;;;11.50;99.90;;;;;;5044079;28;20679;-77
2023/04/12 10:38:47;;;;;;;16.07;3.53;;;11.60;99.90;;;;;;5044971;28;20939;-74
2023/04/12 10:41:20;;;;;;;14.93;2.67;;;11.80;99.90;;;;;;5044489;28;20448;-77
2023/04/12 10:43:47;;;;;;;18.23;3.80;;;11.80;99.90;;;;;;5043090;28;20911;-75
2023/04/12 10:46:46;;;;;;;17.03;3.27;;;12.00;99.90;;;;;;5043998;28;20452;-75
2023/04/12 10:49:14;;;;;;;16.53;3.60;;;12.20;99.90;;;;;;5000402;28;20413;-75
2023/04/12 10:52:06;;;;;;;14.98;3.25;;;12.00;99.90;;;;;;5042470;28;20431;-76
2023/04/12 10:54:36;;;;;;;13.33;3.40;;;12.20;99.90;;;;;;5040344;28;20765;-75
2023/04/12 10:57:03;;;;;;;19.83;5.85;;;12.30;99.90;;;;;;5045311;28;20438;-76
2023/04/12 11:00:04;;;;;;;14.35;3.10;;;12.10;99.90;;;;;;5043996;28;20394;-75
2023/04/12 11:02:33;;;;;;;14.30;3.10;;;12.20;99.90;;;;;;4963273;28;20748;-76
2023/04/12 11:05:08;;;;;;;17.25;4.28;;;12.30;99.90;;;;;;5028675;28;20877;-76
2023/04/12 11:07:42;;;;;;;13.90;3.38;;;12.40;99.90;;;;;;5044443;28;20433;-76
2023/04/12 11:10:15;;;;;;;15.18;3.47;;;12.40;99.90;;;;;;5043783;28;20653;-76
2023/04/12 11:12:47;;;;;;;13.00;2.88;;;12.40;99.90;;;;;;5042934;28;20406;-76
2023/04/12 11:15:13;;;;;;;17.90;3.92;;;12.40;99.90;;;;;;5043741;28;20404;-76
2023/04/12 11:17:38;;;;;;;17.05;3.78;;;12.40;99.90;;;;;;5043701;28;20803;-76
2023/04/12 11:20:10;;;;;;;14.80;3.22;;;12.30;99.90;;;;;;5043913;28;20877;-76
2023/04/12 11:22:37;;;;;;;16.08;4.15;;;12.00;99.90;;;;;;5042470;28;20418;-77
2023/04/12 11:25:03;;;;;;;17.95;4.78;;;12.10;99.90;;;;;;5042918;28;20551;-75
2023/04/12 11:27:30;;;;;;;17.48;5.00;;;12.10;99.90;;;;;;5044554;28;20500;-76
2023/04/12 11:29:59;;;;;;;19.40;3.97;;;12.00;99.90;;;;;;5044104;28;20405;-75
2023/04/12 11:32:34;;;;;;;16.15;3.78;;;12.00;99.90;;;;;;5045308;28;20417;-76
2023/04/12 11:34:59;;;;;;;15.07;4.18;;;11.90;99.90;;;;;;5048751;28;20412;-76
2023/04/12 11:37:25;;;;;;;13.93;3.05;;;11.80;99.90;;;;;;5048017;28;21010;-76
2023/04/12 11:39:54;;;;;;;17.42;5.00;;;11.90;99.90;;;;;;5047556;28;20401;-77
2023/04/12 11:42:22;;;;;;;15.57;4.35;;;12.10;99.90;;;;;;5047524;28;20413;-77
2023/04/12 11:44:49;;;;;;;19.25;4.70;;;12.30;99.90;;;;;;5044674;28;20565;-77
2023/04/12 11:47:18;;;;;;;21.13;3.90;;;12.30;99.90;;;;;;5047275;28;20426;-76
2023/04/12 11:49:46;;;;;;;17.85;4.28;;;12.50;99.90;;;;;;5045259;28;20484;-76
2023/04/12 11:52:12;;;;;;;13.45;4.18;;;12.40;99.90;;;;;;5047310;28;20772;-75
2023/04/12 11:54:43;;;;;;;15.43;3.58;;;12.40;99.90;;;;;;5046853;28;20495;-77
2023/04/12 11:57:11;;;;;;;19.65;4.78;;;12.50;99.90;;;;;;5046886;28;20497;-77
2023/04/12 11:59:37;;;;;;;15.52;3.80;;;12.70;99.90;;;;;;5046076;28;20409;-76
2023/04/12 12:02:03;;;;;;;15.50;4.82;;;12.90;99.90;;;;;;5047433;28;20402;-76
2023/04/12 12:04:29;;;;;;;18.08;2.92;;;13.10;99.90;;;;;;5046885;28;20409;-76
2023/04/12 12:06:57;;;;;;;14.63;3.08;;;13.10;99.90;;;;;;5046440;28;20829;-76
2023/04/12 12:09:24;;;;;;;17.85;3.28;;;13.10;99.90;;;;;;5046800;28;20421;-76
2023/04/12 12:11:51;;;;;;;12.35;2.92;;;13.00;99.90;;;;;;5044994;28;20405;-76
2023/04/12 12:14:20;;;;;;;15.30;4.07;;;12.60;99.90;;;;;;5045520;28;20410;-76
2023/04/12 12:16:54;;;;;;;12.02;3.03;;;12.40;99.90;;;;;;5046512;28;20436;-76
2023/04/12 12:19:31;;;;;;;12.95;3.30;;;12.50;99.90;;;;;;5047010;28;20405;-75
2023/04/12 12:22:07;;;;;;;15.75;4.80;;;12.60;99.90;;;;;;5046331;28;20397;-74
2023/04/12 12:24:32;;;;;;;13.50;3.10;;;12.40;99.90;;;;;;5047029;28;20410;-76
2023/04/12 12:27:02;;;;;;;10.95;3.15;;;12.50;99.90;;;;;;5046082;28;20679;-76
2023/04/12 12:29:34;;;;;;;14.43;3.77;;;12.30;99.90;;;;;;5045722;28;20397;-76
2023/04/12 12:32:00;;;;;;;13.20;3.95;;;12.30;99.90;;;;;;5046381;28;20750;-75
2023/04/12 12:34:31;;;;;;;15.70;3.28;;;12.40;99.90;;;;;;5046590;28;20411;-76
2023/04/12 12:36:57;;;;;;;12.85;3.35;;;12.40;99.90;;;;;;5045770;28;21012;-77
2023/04/12 12:39:23;;;;;;;13.20;2.90;;;12.20;99.90;;;;;;5046528;28;20401;-76
2023/04/12 12:41:55;;;;;;;12.60;3.27;;;12.10;99.90;;;;;;5046113;28;20797;-76
2023/04/12 12:44:24;;;;;;;12.07;2.63;;;11.80;99.90;;;;;;5044937;28;20725;-76
2023/04/12 12:46:50;;;;;;;13.60;3.78;;;11.90;99.90;;;;;;5044187;28;20433;-76
2023/04/12 12:49:17;;;;;;;11.98;3.08;;;12.00;99.90;;;;;;5045739;28;20401;-76
2023/04/12 12:51:43;;;;;;;15.67;3.83;;;11.80;99.90;;;;;;5044695;28;20557;-76
2023/04/12 12:54:09;;;;;;;12.07;3.10;;;12.00;99.90;;;;;;5046131;28;20669;-76